createdAt,value
2018-07-16T00:05:23.256Z,18
2018-07-16T00:10:28.462Z,18
2018-07-16T00:15:30.705Z,17.9
2018-07-16T00:20:15.884Z,17.8
2018-07-16T00:30:08.021Z,4.8
2018-07-16T00:40:05.763Z,17.5
2018-07-16T00:45:25.410Z,17.4
2018-07-16T00:50:07.847Z,17.3
2018-07-16T00:55:33.539Z,17.2
2018-07-16T01:00:18.233Z,17.2
2018-07-16T01:05:32.846Z,17.1
2018-07-16T01:15:02.951Z,17.1
2018-07-16T01:20:12.541Z,17
2018-07-16T01:30:10.801Z,16.9
2018-07-16T01:35:32.913Z,16.9
2018-07-16T01:40:05.315Z,16.8
2018-07-16T01:45:31.088Z,16.8
2018-07-16T01:50:02.561Z,16.8
2018-07-16T01:55:05.561Z,16.6
2018-07-16T02:05:03.212Z,16.5
2018-07-16T02:10:20.790Z,16.4
2018-07-16T02:20:13.165Z,16.2
2018-07-16T02:25:17.570Z,16.2
2018-07-16T02:30:03.012Z,16.2
2018-07-16T02:35:37.944Z,16.1
2018-07-16T02:40:35.679Z,16.1
2018-07-16T02:45:08.151Z,16
2018-07-16T02:50:27.898Z,15.9
2018-07-16T02:55:05.817Z,15.8
2018-07-16T03:05:22.768Z,15.8
2018-07-16T03:10:22.904Z,15.8
2018-07-16T03:15:08.259Z,15.8
2018-07-16T03:20:35.616Z,15.8
2018-07-16T03:30:08.368Z,15.8
2018-07-16T03:35:22.986Z,15.3
2018-07-16T03:50:18.569Z,15.7
2018-07-16T03:55:02.832Z,15.7
2018-07-16T04:00:05.790Z,15.8
2018-07-16T04:10:05.873Z,15.9
2018-07-16T04:15:18.091Z,15.9
2018-07-16T04:20:15.234Z,16
2018-07-16T04:25:08.107Z,16
2018-07-16T04:30:27.762Z,22.5
2018-07-16T04:35:08.194Z,16.1
2018-07-16T04:40:05.606Z,16.3
2018-07-16T04:50:17.985Z,16.4
2018-07-16T05:00:05.091Z,16.7
2018-07-16T05:15:03.040Z,17
2018-07-16T05:20:05.525Z,17.2
2018-07-16T05:30:05.209Z,17.4
2018-07-16T05:35:03.351Z,17.4
2018-07-16T05:40:05.184Z,17.8
2018-07-16T05:45:08.097Z,17.8
2018-07-16T05:50:10.119Z,17.9
2018-07-16T06:00:04.983Z,18.1
2018-07-16T06:05:38.305Z,18.2
2018-07-16T06:10:31.040Z,18.3
2018-07-16T06:15:02.414Z,18.3
2018-07-16T06:20:30.790Z,18.4
2018-07-16T06:25:03.231Z,18.4
2018-07-16T06:30:08.315Z,18.6
2018-07-16T06:35:05.602Z,18.7
2018-07-16T06:40:05.242Z,18.8
2018-07-16T06:45:25.155Z,18.9
2018-07-16T06:50:02.541Z,18.9
2018-07-16T06:55:03.018Z,18.9
2018-07-16T07:00:22.689Z,19.1
2018-07-16T07:05:27.675Z,19.3
2018-07-16T07:10:05.504Z,19.5
2018-07-16T07:15:18.456Z,19.7
2018-07-16T07:20:05.244Z,19.8
2018-07-16T07:25:03.118Z,19.8
2018-07-16T07:35:10.597Z,20.2
2018-07-16T07:40:12.965Z,20.3
2018-07-16T07:45:03.254Z,20.3
2018-07-16T07:50:38.064Z,20.5
2018-07-16T07:55:38.407Z,20.5
2018-07-16T08:00:08.122Z,20.6
2018-07-16T08:10:13.374Z,20.7
2018-07-16T08:15:12.874Z,20.9
2018-07-16T08:20:04.982Z,21
2018-07-16T08:25:20.623Z,21.1
2018-07-16T08:30:10.972Z,21.2
2018-07-16T08:35:02.754Z,21.2
2018-07-16T08:40:28.037Z,21.4
2018-07-16T08:45:10.147Z,21.6
2018-07-16T08:50:07.848Z,21.7
2018-07-16T08:55:08.249Z,21.8
2018-07-16T09:00:10.259Z,21.8
2018-07-16T09:05:15.862Z,22
2018-07-16T09:10:02.777Z,22
2018-07-16T09:15:03.347Z,22.1
2018-07-16T09:20:10.457Z,22.2
2018-07-16T09:25:36.299Z,22.3
2018-07-16T09:30:33.312Z,22.5
2018-07-16T09:35:38.137Z,22.6
2018-07-16T09:45:07.536Z,22.8
2018-07-16T09:50:02.997Z,22.8
2018-07-16T09:55:32.800Z,22.9
2018-07-16T10:00:10.945Z,23.1
2018-07-16T10:05:02.852Z,23.1
2018-07-16T10:10:23.139Z,0.9
2018-07-16T10:20:05.718Z,23.5
2018-07-16T10:25:07.726Z,23.6
2018-07-16T10:35:02.442Z,23.6
2018-07-16T10:40:10.931Z,23.9
2018-07-16T10:45:17.986Z,24
2018-07-16T11:00:08.181Z,24.2
2018-07-16T11:05:12.723Z,24.4
2018-07-16T11:10:33.131Z,24.4
2018-07-16T11:15:26.029Z,24.6
2018-07-16T11:20:15.201Z,24.6
2018-07-16T11:25:18.181Z,24.6
2018-07-16T11:30:15.296Z,24.6
2018-07-16T11:40:02.873Z,24.7
2018-07-16T11:45:07.431Z,25
2018-07-16T11:50:05.830Z,25.1
2018-07-16T11:55:15.593Z,25.3
2018-07-16T12:05:03.379Z,25.5
2018-07-16T12:10:15.033Z,25.7
2018-07-16T12:15:08.089Z,25.9
2018-07-16T12:20:05.190Z,25.9
2018-07-16T12:25:10.634Z,26.1
2018-07-16T12:30:10.764Z,26.3
2018-07-16T12:40:02.401Z,26.6
2018-07-16T12:45:10.557Z,26.9
2018-07-16T12:50:18.274Z,27
2018-07-16T12:55:05.026Z,26.4
2018-07-16T13:00:17.735Z,26.9
2018-07-16T13:05:10.649Z,27.4
2018-07-16T13:10:07.779Z,27.6
2018-07-16T13:20:05.232Z,28.1
2018-07-16T13:25:38.594Z,28.3
2018-07-16T13:30:10.649Z,28.7
2018-07-16T13:35:05.170Z,30.2
2018-07-16T13:40:05.760Z,32.7
2018-07-16T13:45:02.920Z,32.5
2018-07-16T13:50:22.954Z,36.1
2018-07-16T13:55:07.545Z,36.2
2018-07-16T14:00:03.125Z,36.2
2018-07-16T14:05:20.447Z,36.5
2018-07-16T14:10:02.510Z,36.6
2018-07-16T14:15:10.875Z,38.6
2018-07-16T14:20:05.055Z,38.7
2018-07-16T14:25:05.770Z,39.5
2018-07-16T14:30:05.862Z,39.6
2018-07-16T14:35:20.746Z,39.3
2018-07-16T14:40:15.947Z,38.6
2018-07-16T14:45:23.206Z,38
2018-07-16T14:50:03.087Z,38
2018-07-16T14:55:07.920Z,37.5
2018-07-16T15:00:15.313Z,37.3
2018-07-16T15:05:02.664Z,37.2
2018-07-16T15:10:13.015Z,36.1
2018-07-16T15:15:17.669Z,35.4
2018-07-16T15:20:03.498Z,35.4
2018-07-16T15:25:10.000Z,34.7
2018-07-16T15:30:10.040Z,34.1
2018-07-16T15:35:08.102Z,33.6
2018-07-16T15:40:08.105Z,32.8
2018-07-16T15:45:07.631Z,32.3
2018-07-16T15:55:07.712Z,31.4
2018-07-16T16:00:20.856Z,31.2
2018-07-16T16:05:02.659Z,31.5
2018-07-16T16:10:30.333Z,31.6
2018-07-16T16:15:17.887Z,32.1
2018-07-16T16:20:20.131Z,32.5
2018-07-16T16:25:08.173Z,32.4
2018-07-16T16:30:02.704Z,32.4
2018-07-16T16:35:10.914Z,32.7
2018-07-16T16:40:20.509Z,32.5
2018-07-16T16:45:23.533Z,32.2
2018-07-16T16:50:08.007Z,31.6
2018-07-16T16:55:07.565Z,31.2
2018-07-16T17:00:30.864Z,31
2018-07-16T17:05:08.330Z,30.8
2018-07-16T17:10:25.923Z,30.3
2018-07-16T17:15:28.598Z,29.7
2018-07-16T17:20:15.916Z,29.3
2018-07-16T17:25:10.254Z,29
2018-07-16T17:30:02.635Z,29
2018-07-16T17:35:10.647Z,28.5
2018-07-16T17:40:12.650Z,28.4
2018-07-16T17:50:18.538Z,28.1
2018-07-16T17:55:23.032Z,28
2018-07-16T18:00:15.051Z,27.8
2018-07-16T18:05:05.347Z,27.8
2018-07-16T18:10:05.739Z,27.7
2018-07-16T18:20:02.945Z,27.6
2018-07-16T18:25:17.536Z,27.4
2018-07-16T18:30:05.483Z,27.4
2018-07-16T18:35:22.617Z,27.3
2018-07-16T18:40:12.713Z,27.2
2018-07-16T18:45:15.665Z,27.1
2018-07-16T18:50:08.094Z,26.9
2018-07-16T18:55:12.573Z,26.8
2018-07-16T19:00:10.582Z,26.7
2018-07-16T19:05:07.462Z,26.5
2018-07-16T19:10:03.294Z,26.5
2018-07-16T19:15:27.997Z,26.1
2018-07-16T19:20:02.401Z,26.1
2018-07-16T19:25:07.852Z,25.6
2018-07-16T19:35:07.468Z,25.1
2018-07-16T19:45:12.619Z,24.7
2018-07-16T19:55:18.502Z,24.3
2018-07-16T20:00:02.993Z,24.3
2018-07-16T20:05:02.488Z,24.2
2018-07-16T20:10:05.059Z,23.9
2018-07-16T20:20:05.718Z,23.9
2018-07-16T20:25:20.433Z,23.9
2018-07-16T20:30:07.890Z,23.7
2018-07-16T20:35:23.475Z,23.6
2018-07-16T20:45:05.023Z,23.5
2018-07-16T20:50:16.063Z,23.4
2018-07-16T20:55:10.325Z,23.3
2018-07-16T21:00:02.650Z,23.3
2018-07-16T21:05:08.106Z,23
2018-07-16T21:10:33.234Z,22.9
2018-07-16T21:20:05.401Z,22.7
2018-07-16T21:25:03.322Z,22.7
2018-07-16T21:30:02.696Z,22.6
2018-07-16T21:35:02.342Z,22.4
2018-07-16T21:40:26.006Z,22.2
2018-07-16T21:45:10.218Z,22.1
2018-07-16T21:50:02.581Z,22.1
2018-07-16T21:55:28.247Z,21.8
2018-07-16T22:00:07.645Z,21.8
2018-07-16T22:05:30.822Z,21.6
2018-07-16T22:10:20.301Z,21.4
2018-07-16T22:15:03.023Z,21.4
2018-07-16T22:20:10.211Z,21.4
2018-07-16T22:25:23.206Z,21.4
2018-07-16T22:30:05.103Z,21.3
2018-07-16T22:35:15.561Z,21.2
2018-07-16T22:40:18.592Z,21.1
2018-07-16T22:45:30.522Z,20.9
2018-07-16T22:50:33.196Z,20.7
2018-07-16T22:55:15.149Z,20.6
2018-07-16T23:00:12.641Z,20.4
2018-07-16T23:05:15.513Z,20.4
2018-07-16T23:10:10.857Z,20.3
2018-07-16T23:15:30.425Z,20.3
2018-07-16T23:20:23.075Z,20.2
2018-07-16T23:25:07.411Z,6.4
2018-07-16T23:30:02.773Z,6.4
2018-07-16T23:35:15.722Z,20.3
2018-07-16T23:40:05.133Z,20.4
2018-07-16T23:45:15.679Z,20.4
2018-07-16T23:50:23.394Z,20.5
2018-07-16T23:55:15.481Z,20.4
